createdAt,value
2022-08-05T00:11:07.766Z,24.56
2022-08-05T00:31:07.737Z,24.93
2022-08-05T00:51:07.994Z,24.56
2022-08-05T01:11:07.661Z,24.93
2022-08-05T01:31:07.652Z,24.75
2022-08-05T01:51:07.586Z,24.75
2022-08-05T02:11:07.556Z,24.75
2022-08-05T02:31:07.538Z,24.81
2022-08-05T02:51:07.492Z,24.68
2022-08-05T03:11:07.469Z,24.81
2022-08-05T03:31:07.465Z,24.81
2022-08-05T03:51:07.395Z,24.68
2022-08-05T04:11:07.375Z,24.68
2022-08-05T04:31:07.333Z,24.68
2022-08-05T04:51:07.316Z,24.75
2022-08-05T05:11:07.273Z,24.75
2022-08-05T05:31:07.268Z,24.75
2022-08-05T05:51:07.209Z,24.68
2022-08-05T06:11:07.185Z,24.87
2022-08-05T06:31:07.157Z,24.62
2022-08-05T06:51:07.323Z,24.87
2022-08-05T07:11:07.093Z,24.62
2022-08-05T07:31:07.041Z,24.75
2022-08-05T07:51:07.044Z,24.87
2022-08-05T08:11:06.985Z,24.93
2022-08-05T08:31:06.969Z,24.81
2022-08-05T08:51:06.933Z,24.56
2022-08-05T09:11:06.924Z,24.93
2022-08-05T09:31:06.856Z,25.00
2022-08-05T09:51:07.597Z,24.87
2022-08-05T10:11:06.795Z,24.75
2022-08-05T10:31:06.770Z,25.00
2022-08-05T10:51:06.734Z,24.87
2022-08-05T11:11:06.702Z,25.00
2022-08-05T11:31:06.678Z,25.00
2022-08-05T11:51:06.651Z,25.25
2022-08-05T12:11:06.607Z,25.25
2022-08-05T12:31:06.593Z,25.25
2022-08-05T12:51:06.553Z,25.06
2022-08-05T13:11:06.526Z,25.18
2022-08-05T13:31:06.488Z,25.18
2022-08-05T13:51:06.468Z,25.12
2022-08-05T14:11:06.421Z,25.31
2022-08-05T14:31:06.396Z,25.37
2022-08-05T14:51:06.362Z,25.37
2022-08-05T15:11:06.336Z,25.56
2022-08-05T15:31:06.313Z,25.56
2022-08-05T15:51:06.256Z,25.68
2022-08-05T16:11:06.253Z,25.43
2022-08-05T16:31:06.222Z,25.56
2022-08-05T16:51:06.201Z,25.43
2022-08-05T17:11:06.139Z,25.25
2022-08-05T17:31:06.118Z,25.56
2022-08-05T17:51:06.109Z,25.43
2022-08-05T18:11:06.056Z,25.31
2022-08-05T18:31:06.057Z,25.50
2022-08-05T18:51:07.254Z,25.50
2022-08-05T19:11:05.953Z,25.37
2022-08-05T19:31:05.926Z,25.37
2022-08-05T19:51:05.898Z,25.31
2022-08-05T20:11:05.857Z,25.06
2022-08-05T20:31:05.827Z,25.18
2022-08-05T20:51:05.793Z,25.18
2022-08-05T21:11:05.759Z,25.37
2022-08-05T21:31:05.745Z,25.25
2022-08-05T21:51:05.693Z,25.31
2022-08-05T22:11:05.669Z,25.12
2022-08-05T22:31:05.629Z,25.18
2022-08-05T22:51:05.606Z,25.37
2022-08-05T23:11:05.565Z,25.18
2022-08-05T23:31:05.538Z,25.00
2022-08-05T23:51:05.512Z,25.06
